Time;durP1;ratioP1;P1;durP2;ratioP2;P2;SDS_P1;SDS_P2;PMS_P1;PMS_P2;Temp;Humidity;BMP_temperature;BMP_pressure;BME280_temperature;BME280_humidity;BME280_pressure;Samples;Min_cycle;Max_cycle;Signal;HPM_P1;HPM_P2
2022/05/30 00:01:36;;;;;;;4.70;2.77;;;;;;;;;;5055836;28;20931;-69
2022/05/30 00:04:04;;;;;;;10.83;2.63;;;;;;;;;;5055713;28;20437;-69
2022/05/30 00:06:31;;;;;;;6.47;2.50;;;;;;;;;;5055814;28;20437;-69
2022/05/30 00:08:58;;;;;;;8.60;2.63;;;;;;;;;;5055985;28;20433;-70
2022/05/30 00:11:27;;;;;;;6.40;2.40;;;;;;;;;;5055605;28;20445;-69
2022/05/30 00:13:56;;;;;;;11.80;2.73;;;;;;;;;;5055493;28;20437;-70
2022/05/30 00:16:24;;;;;;;8.77;2.67;;;;;;;;;;5055606;28;21033;-69
2022/05/30 00:18:52;;;;;;;7.73;2.67;;;;;;;;;;5055239;28;20437;-69
2022/05/30 00:21:20;;;;;;;5.93;2.60;;;;;;;;;;5055454;28;20546;-69
2022/05/30 00:23:47;;;;;;;5.13;2.70;;;;;;;;;;5055805;28;20441;-69
2022/05/30 00:26:15;;;;;;;12.70;3.30;;;;;;;;;;5055389;28;20472;-69
2022/05/30 00:28:42;;;;;;;10.10;2.80;;;;;;;;;;5055271;28;20449;-69
2022/05/30 00:31:12;;;;;;;9.37;3.57;;;;;;;;;;5055206;28;20453;-69
2022/05/30 00:33:39;;;;;;;6.43;2.78;;;;;;;;;;5055849;28;20467;-69
2022/05/30 00:36:07;;;;;;;9.30;2.53;;;;;;;;;;5055872;28;20230;-71
2022/05/30 00:38:34;;;;;;;5.70;2.80;;;;;;;;;;5054797;28;20205;-69
2022/05/30 00:41:01;;;;;;;4.73;2.67;;;;;;;;;;5055055;28;20495;-69
2022/05/30 00:43:30;;;;;;;8.47;3.30;;;;;;;;;;5055143;28;20451;-69
2022/05/30 00:45:58;;;;;;;11.50;3.20;;;;;;;;;;5054735;28;20463;-69
2022/05/30 00:48:29;;;;;;;6.70;3.58;;;;;;;;;;5054773;28;20536;-69
2022/05/30 00:50:59;;;;;;;9.43;3.60;;;;;;;;;;5055060;28;20194;-69
2022/05/30 00:53:27;;;;;;;13.77;3.20;;;;;;;;;;5054638;28;20506;-69
2022/05/30 00:55:54;;;;;;;9.30;3.03;;;;;;;;;;5055308;28;20202;-70
2022/05/30 00:58:22;;;;;;;9.13;3.63;;;;;;;;;;5054697;28;20436;-69
2022/05/30 01:00:49;;;;;;;6.50;3.03;;;;;;;;;;5055031;28;20453;-71
2022/05/30 01:08:47;;;;;;;5.80;3.17;;;;;;;;;;5054696;28;20666;-69
2022/05/30 01:11:14;;;;;;;6.73;3.07;;;;;;;;;;5054457;28;20806;-69
2022/05/30 01:13:42;;;;;;;10.68;3.80;;;;;;;;;;5054662;28;20477;-69
2022/05/30 01:16:10;;;;;;;11.00;3.17;;;;;;;;;;5055204;28;20285;-69
2022/05/30 01:18:40;;;;;;;10.75;4.20;;;;;;;;;;5054284;28;20285;-69
2022/05/30 01:21:22;;;;;;;13.83;3.67;;;;;;;;;;5053973;28;20191;-69
2022/05/30 01:23:58;;;;;;;9.98;3.78;;;;;;;;;;5054385;28;20430;-69
2022/05/30 01:26:49;;;;;;;6.67;3.20;;;;;;;;;;5054286;28;20191;-71
2022/05/30 01:29:19;;;;;;;7.90;3.30;;;;;;;;;;5038992;28;20454;-70
2022/05/30 01:31:46;;;;;;;7.85;3.70;;;;;;;;;;5054821;28;20445;-69
2022/05/30 01:34:13;;;;;;;7.30;3.10;;;;;;;;;;5053765;28;20202;-69
2022/05/30 01:36:41;;;;;;;10.93;3.60;;;;;;;;;;5054014;28;20477;-69
2022/05/30 01:39:08;;;;;;;14.30;3.63;;;;;;;;;;5053193;28;20442;-69
2022/05/30 01:41:35;;;;;;;6.50;3.03;;;;;;;;;;5053899;28;20802;-69
2022/05/30 01:44:02;;;;;;;7.77;3.50;;;;;;;;;;5053864;28;20464;-69
2022/05/30 01:46:31;;;;;;;8.23;4.18;;;;;;;;;;5054207;28;20448;-69
2022/05/30 01:48:59;;;;;;;7.57;2.97;;;;;;;;;;5053505;28;20233;-69
2022/05/30 01:51:26;;;;;;;8.20;3.45;;;;;;;;;;5054094;28;20544;-69
2022/05/30 01:53:53;;;;;;;12.65;3.50;;;;;;;;;;5054197;28;20195;-69
2022/05/30 01:56:21;;;;;;;13.77;3.78;;;;;;;;;;5053499;28;20208;-69
2022/05/30 01:58:48;;;;;;;14.43;3.20;;;;;;;;;;5053354;28;20204;-69
2022/05/30 02:01:17;;;;;;;5.90;3.00;;;;;;;;;;5053035;28;21010;-69
2022/05/30 02:03:46;;;;;;;6.90;3.90;;;;;;;;;;5053558;28;20803;-69
2022/05/30 02:06:13;;;;;;;11.48;3.60;;;;;;;;;;5053828;28;20453;-69
2022/05/30 02:08:41;;;;;;;7.35;3.95;;;;;;;;;;5053242;28;20198;-69
2022/05/30 02:11:10;;;;;;;10.00;4.30;;;;;;;;;;5053018;28;20203;-69
2022/05/30 02:13:37;;;;;;;7.82;3.40;;;;;;;;;;5053213;28;20195;-69
2022/05/30 02:19:00;;;;;;;14.23;4.40;;;;;;;;;;5028941;28;20425;-69
2022/05/30 02:21:27;;;;;;;6.38;4.30;;;;;;;;;;5052984;28;20445;-69
2022/05/30 02:23:55;;;;;;;6.38;3.60;;;;;;;;;;5052979;28;20198;-69
2022/05/30 02:26:22;;;;;;;9.60;3.10;;;;;;;;;;5053256;28;20198;-69
2022/05/30 02:28:50;;;;;;;7.50;3.87;;;;;;;;;;5053881;28;20536;-69
2022/05/30 02:31:17;;;;;;;9.50;4.43;;;;;;;;;;5053214;28;20437;-69
2022/05/30 02:36:40;;;;;;;13.13;3.60;;;;;;;;;;5053129;28;20480;-69
2022/05/30 02:39:07;;;;;;;12.48;4.13;;;;;;;;;;5053229;28;20446;-69
2022/05/30 02:41:34;;;;;;;10.75;3.67;;;;;;;;;;5052679;28;20201;-69
2022/05/30 02:44:02;;;;;;;6.90;3.90;;;;;;;;;;5053111;28;20195;-69
2022/05/30 02:46:29;;;;;;;11.80;3.60;;;;;;;;;;5053223;28;20286;-68
2022/05/30 02:48:56;;;;;;;12.25;4.20;;;;;;;;;;5053375;28;20194;-69
2022/05/30 02:51:23;;;;;;;8.73;4.10;;;;;;;;;;5056987;28;20196;-69
2022/05/30 02:53:52;;;;;;;9.82;3.70;;;;;;;;;;5057432;28;20659;-68
2022/05/30 02:56:19;;;;;;;11.95;5.10;;;;;;;;;;5057282;28;20201;-69
2022/05/30 02:58:46;;;;;;;6.30;3.28;;;;;;;;;;5057103;28;20543;-69
2022/05/30 03:01:13;;;;;;;8.32;3.20;;;;;;;;;;5056940;28;20285;-68
2022/05/30 03:03:41;;;;;;;11.13;4.30;;;;;;;;;;5057203;28;20683;-68
2022/05/30 03:06:08;;;;;;;7.95;3.85;;;;;;;;;;5057240;28;20560;-68
2022/05/30 03:08:35;;;;;;;15.10;4.32;;;;;;;;;;5056845;28;20197;-69
2022/05/30 03:11:04;;;;;;;7.97;4.45;;;;;;;;;;5056745;28;20202;-69
2022/05/30 03:13:31;;;;;;;10.40;3.47;;;;;;;;;;5056792;28;20207;-68
2022/05/30 03:15:58;;;;;;;9.32;3.65;;;;;;;;;;5056532;28;20195;-69
2022/05/30 03:18:26;;;;;;;16.63;4.25;;;;;;;;;;5056929;28;20263;-69
2022/05/30 03:20:53;;;;;;;17.80;4.53;;;;;;;;;;5056660;28;20202;-68
2022/05/30 03:23:20;;;;;;;10.30;3.90;;;;;;;;;;5056600;28;20228;-69
2022/05/30 03:25:47;;;;;;;16.42;4.90;;;;;;;;;;5056160;28;20199;-68
2022/05/30 03:28:16;;;;;;;12.70;4.55;;;;;;;;;;5056514;28;20556;-68
2022/05/30 03:30:44;;;;;;;8.17;3.50;;;;;;;;;;5056688;28;20198;-67
2022/05/30 03:33:11;;;;;;;8.57;3.83;;;;;;;;;;5056126;28;21035;-66
2022/05/30 03:35:39;;;;;;;12.38;4.28;;;;;;;;;;5055489;28;20480;-68
2022/05/30 03:38:07;;;;;;;12.15;3.75;;;;;;;;;;5055271;28;20202;-68
2022/05/30 03:40:36;;;;;;;17.77;5.35;;;;;;;;;;5054611;28;20198;-68
2022/05/30 03:43:04;;;;;;;11.63;5.07;;;;;;;;;;5055281;28;20215;-68
2022/05/30 03:45:32;;;;;;;7.28;3.92;;;;;;;;;;5054616;28;20206;-68
2022/05/30 03:47:59;;;;;;;10.63;4.45;;;;;;;;;;5053866;28;20199;-67
2022/05/30 03:50:27;;;;;;;14.45;4.32;;;;;;;;;;5054397;28;20529;-67
2022/05/30 03:52:54;;;;;;;7.60;3.92;;;;;;;;;;5054744;28;20209;-67
2022/05/30 03:55:22;;;;;;;11.77;4.40;;;;;;;;;;5054522;28;20206;-68
2022/05/30 03:57:51;;;;;;;10.68;4.50;;;;;;;;;;5054590;28;20256;-69
2022/05/30 04:00:20;;;;;;;12.65;4.18;;;;;;;;;;5054344;28;20201;-68
2022/05/30 04:02:49;;;;;;;12.60;3.80;;;;;;;;;;5054297;28;20226;-69
2022/05/30 04:05:16;;;;;;;10.20;4.60;;;;;;;;;;5054553;28;20191;-68
2022/05/30 04:07:43;;;;;;;12.27;6.53;;;;;;;;;;5053963;28;20478;-67
2022/05/30 04:10:11;;;;;;;8.10;4.53;;;;;;;;;;5054530;28;20537;-68
2022/05/30 04:12:39;;;;;;;10.15;4.20;;;;;;;;;;5054544;28;20197;-69
2022/05/30 04:15:07;;;;;;;7.00;3.73;;;;;;;;;;5054617;28;20194;-68
2022/05/30 04:17:35;;;;;;;9.30;4.00;;;;;;;;;;5054095;28;20445;-68
2022/05/30 04:20:04;;;;;;;13.30;4.22;;;;;;;;;;5054436;28;20289;-68
2022/05/30 04:22:32;;;;;;;14.03;4.13;;;;;;;;;;5053981;28;20264;-69
2022/05/30 04:24:59;;;;;;;7.93;3.42;;;;;;;;;;5054066;28;20933;-68
2022/05/30 04:27:26;;;;;;;13.43;3.15;;;;;;;;;;5054304;28;20542;-68
2022/05/30 04:29:53;;;;;;;4.97;2.85;;;;;;;;;;5054464;28;20198;-68
2022/05/30 04:32:22;;;;;;;9.97;3.43;;;;;;;;;;5054390;28;20209;-68
2022/05/30 04:34:50;;;;;;;11.00;3.28;;;;;;;;;;5054086;28;20445;-67
2022/05/30 04:37:18;;;;;;;14.10;3.77;;;;;;;;;;5016306;28;1099486;-68
2022/05/30 04:39:46;;;;;;;7.57;3.15;;;;;;;;;;5054931;28;20445;-68
2022/05/30 04:42:13;;;;;;;8.98;3.45;;;;;;;;;;5055240;28;20551;-68
2022/05/30 04:44:40;;;;;;;3.87;2.73;;;;;;;;;;5054840;28;20670;-68
2022/05/30 04:47:11;;;;;;;5.35;2.92;;;;;;;;;;5054416;28;20457;-67
2022/05/30 04:49:38;;;;;;;6.30;3.22;;;;;;;;;;5055446;28;20208;-68
2022/05/30 04:52:05;;;;;;;8.93;2.90;;;;;;;;;;5055161;28;20203;-68
2022/05/30 04:54:34;;;;;;;6.80;3.30;;;;;;;;;;5054918;28;20607;-67
2022/05/30 04:57:01;;;;;;;8.20;2.90;;;;;;;;;;5054622;28;20773;-68
2022/05/30 04:59:29;;;;;;;7.93;3.38;;;;;;;;;;5054475;28;20202;-69
2022/05/30 05:01:56;;;;;;;6.67;3.63;;;;;;;;;;5054827;28;20191;-67
2022/05/30 05:04:23;;;;;;;11.77;3.38;;;;;;;;;;5054569;28;20476;-68
2022/05/30 05:06:50;;;;;;;7.65;2.70;;;;;;;;;;5054596;28;20191;-67
2022/05/30 05:09:25;;;;;;;5.63;3.50;;;;;;;;;;5054916;28;20285;-67
2022/05/30 05:11:54;;;;;;;6.40;3.60;;;;;;;;;;5054132;28;20445;-67
2022/05/30 05:14:21;;;;;;;9.73;3.30;;;;;;;;;;5054337;28;20487;-68
2022/05/30 05:16:49;;;;;;;4.43;2.90;;;;;;;;;;5054130;28;20281;-68
2022/05/30 05:19:16;;;;;;;6.70;3.50;;;;;;;;;;5054158;28;20201;-68
2022/05/30 05:21:45;;;;;;;11.43;3.70;;;;;;;;;;5053900;28;20459;-67
2022/05/30 05:24:12;;;;;;;8.35;3.38;;;;;;;;;;5054601;28;20918;-68
2022/05/30 05:26:44;;;;;;;12.07;3.30;;;;;;;;;;5053909;28;20195;-68
2022/05/30 05:29:13;;;;;;;8.38;3.00;;;;;;;;;;5053926;28;20440;-71
2022/05/30 05:31:40;;;;;;;5.63;2.80;;;;;;;;;;5054683;28;20190;-70
2022/05/30 05:34:08;;;;;;;4.68;2.70;;;;;;;;;;5053725;28;20449;-70
2022/05/30 05:36:36;;;;;;;6.05;2.92;;;;;;;;;;5053570;28;20829;-69
2022/05/30 05:39:04;;;;;;;5.03;3.10;;;;;;;;;;5053593;28;20645;-68
2022/05/30 05:41:31;;;;;;;5.93;3.67;;;;;;;;;;5053696;28;20447;-69
2022/05/30 05:43:58;;;;;;;8.70;3.20;;;;;;;;;;5053814;28;20477;-68
2022/05/30 05:46:28;;;;;;;4.70;2.70;;;;;;;;;;5054359;28;20191;-68
2022/05/30 05:48:56;;;;;;;10.82;3.15;;;;;;;;;;5053713;28;20444;-68
2022/05/30 05:51:23;;;;;;;5.60;2.27;;;;;;;;;;5054643;28;20518;-68
2022/05/30 05:53:51;;;;;;;10.93;3.23;;;;;;;;;;5053301;28;20446;-68
2022/05/30 05:56:19;;;;;;;9.70;3.90;;;;;;;;;;5053110;28;20445;-68
2022/05/30 05:58:46;;;;;;;3.67;2.30;;;;;;;;;;5053259;28;20446;-69
2022/05/30 06:01:14;;;;;;;7.40;2.63;;;;;;;;;;5053358;28;20455;-68
2022/05/30 06:03:43;;;;;;;4.83;1.70;;;;;;;;;;5053571;28;20480;-67
2022/05/30 06:06:10;;;;;;;8.47;2.50;;;;;;;;;;5054528;28;20437;-68
2022/05/30 06:08:37;;;;;;;4.53;3.17;;;;;;;;;;5053748;28;20450;-68
2022/05/30 06:11:09;;;;;;;8.57;2.67;;;;;;;;;;5053912;28;20438;-68
2022/05/30 06:13:37;;;;;;;4.20;2.70;;;;;;;;;;5053199;28;20942;-68
2022/05/30 06:16:07;;;;;;;6.20;2.10;;;;;;;;;;5053436;28;20468;-68
2022/05/30 06:18:35;;;;;;;8.03;2.50;;;;;;;;;;5053664;28;20521;-68
2022/05/30 06:21:03;;;;;;;8.30;2.33;;;;;;;;;;5053716;28;20449;-68
2022/05/30 06:23:31;;;;;;;8.57;3.50;;;;;;;;;;5053112;28;20473;-68
2022/05/30 06:26:01;;;;;;;5.03;2.47;;;;;;;;;;5053344;28;20445;-68
2022/05/30 06:28:28;;;;;;;6.03;2.87;;;;;;;;;;5053408;28;20517;-68
2022/05/30 06:30:56;;;;;;;5.67;3.70;;;;;;;;;;5053224;28;20453;-69
2022/05/30 06:33:23;;;;;;;6.50;3.20;;;;;;;;;;5053175;28;20554;-68
2022/05/30 06:35:50;;;;;;;11.03;3.17;;;;;;;;;;5053461;28;20475;-67
2022/05/30 06:38:20;;;;;;;10.27;3.73;;;;;;;;;;5053145;28;20445;-68
2022/05/30 06:40:47;;;;;;;6.27;2.80;;;;;;;;;;5053219;28;20442;-68
2022/05/30 06:43:14;;;;;;;6.13;2.90;;;;;;;;;;5052719;28;20477;-68
2022/05/30 06:45:41;;;;;;;8.67;2.80;;;;;;;;;;5053799;28;20798;-68
2022/05/30 06:48:09;;;;;;;5.13;2.87;;;;;;;;;;5053181;28;20944;-67
2022/05/30 06:50:37;;;;;;;2.30;2.10;;;;;;;;;;5053720;28;20792;-68
2022/05/30 06:53:06;;;;;;;6.00;2.00;;;;;;;;;;5053248;28;20442;-67
2022/05/30 06:55:34;;;;;;;5.90;2.50;;;;;;;;;;5052978;28;20518;-68
2022/05/30 06:58:14;;;;;;;6.30;2.23;;;;;;;;;;5053378;28;20433;-67
2022/05/30 07:00:41;;;;;;;5.73;2.30;;;;;;;;;;5053298;28;20516;-68
2022/05/30 07:03:09;;;;;;;4.20;2.80;;;;;;;;;;5052860;28;20477;-67
2022/05/30 07:05:36;;;;;;;6.43;2.60;;;;;;;;;;5053497;28;20810;-68
2022/05/30 07:08:03;;;;;;;3.67;2.40;;;;;;;;;;5052701;28;20961;-67
2022/05/30 07:10:31;;;;;;;2.20;2.00;;;;;;;;;;5052515;28;20451;-67
2022/05/30 07:13:00;;;;;;;3.70;1.87;;;;;;;;;;5052570;28;20512;-67
2022/05/30 07:15:28;;;;;;;4.63;2.13;;;;;;;;;;5052490;28;20449;-68
2022/05/30 07:17:55;;;;;;;4.87;2.47;;;;;;;;;;5052968;28;20535;-67
2022/05/30 07:20:22;;;;;;;7.00;2.17;;;;;;;;;;5052788;28;20523;-68
2022/05/30 07:22:49;;;;;;;3.20;1.80;;;;;;;;;;5052697;28;20457;-67
2022/05/30 07:25:16;;;;;;;3.43;2.03;;;;;;;;;;5052377;28;20949;-67
2022/05/30 07:27:44;;;;;;;3.10;1.90;;;;;;;;;;5053086;28;21022;-68
2022/05/30 07:30:13;;;;;;;6.23;2.50;;;;;;;;;;5052802;28;20447;-67
2022/05/30 07:32:40;;;;;;;5.40;2.33;;;;;;;;;;5052771;28;20447;-67
2022/05/30 07:35:07;;;;;;;7.50;1.93;;;;;;;;;;5052602;28;20444;-67
2022/05/30 07:37:35;;;;;;;4.70;2.30;;;;;;;;;;5056353;28;20438;-67
2022/05/30 07:40:02;;;;;;;4.03;2.20;;;;;;;;;;5056253;28;20444;-67
2022/05/30 07:42:29;;;;;;;7.20;2.33;;;;;;;;;;5056374;28;20444;-68
2022/05/30 07:44:56;;;;;;;2.47;2.10;;;;;;;;;;5055689;28;20474;-67
2022/05/30 07:47:27;;;;;;;5.33;1.90;;;;;;;;;;5056240;28;20792;-67
2022/05/30 07:49:54;;;;;;;5.27;2.47;;;;;;;;;;5056318;28;20474;-68
2022/05/30 07:52:21;;;;;;;8.90;2.20;;;;;;;;;;5056108;28;20441;-67
2022/05/30 07:54:48;;;;;;;4.33;2.10;;;;;;;;;;5055571;28;20443;-67
2022/05/30 07:57:15;;;;;;;9.47;2.30;;;;;;;;;;5056035;28;20945;-68
2022/05/30 07:59:43;;;;;;;6.10;2.53;;;;;;;;;;5055709;28;20521;-68
2022/05/30 08:02:10;;;;;;;4.70;2.40;;;;;;;;;;5055828;28;20784;-67
2022/05/30 08:04:38;;;;;;;3.60;2.03;;;;;;;;;;5055707;28;20487;-67
2022/05/30 08:07:07;;;;;;;8.10;2.67;;;;;;;;;;5055844;28;20439;-68
2022/05/30 08:09:34;;;;;;;3.50;1.73;;;;;;;;;;5055223;28;20455;-67
2022/05/30 08:12:01;;;;;;;4.17;1.57;;;;;;;;;;5055740;28;20533;-67
2022/05/30 08:14:28;;;;;;;2.63;1.77;;;;;;;;;;5055562;28;20458;-67
2022/05/30 08:16:56;;;;;;;5.93;2.07;;;;;;;;;;5055291;28;20537;-67
2022/05/30 08:19:24;;;;;;;4.20;2.00;;;;;;;;;;5055185;28;20454;-67
2022/05/30 08:21:52;;;;;;;3.00;1.77;;;;;;;;;;5055386;28;20496;-67
2022/05/30 08:24:20;;;;;;;5.30;2.07;;;;;;;;;;5054807;28;20484;-67
2022/05/30 08:26:47;;;;;;;3.77;2.00;;;;;;;;;;5055460;28;20465;-67
2022/05/30 08:29:14;;;;;;;7.13;2.10;;;;;;;;;;5055351;28;20445;-67
2022/05/30 08:31:42;;;;;;;3.80;2.20;;;;;;;;;;5055225;28;20538;-67
2022/05/30 08:34:09;;;;;;;5.70;2.20;;;;;;;;;;5054872;28;20445;-67
2022/05/30 08:36:36;;;;;;;7.33;2.13;;;;;;;;;;5054995;28;20463;-67
2022/05/30 08:41:49;;;;;;;2.40;1.57;;;;;;;;;;5055134;28;20474;-68
2022/05/30 08:44:18;;;;;;;3.40;1.70;;;;;;;;;;5055287;28;20482;-68
2022/05/30 08:46:55;;;;;;;6.30;2.03;;;;;;;;;;5053949;28;20497;-67
2022/05/30 08:49:26;;;;;;;6.80;1.90;;;;;;;;;;5055024;28;20436;-67
2022/05/30 08:52:07;;;;;;;4.47;1.70;;;;;;;;;;5055679;28;20424;-68
2022/05/30 08:54:42;;;;;;;2.27;1.50;;;;;;;;;;5055389;28;20437;-66
2022/05/30 08:57:11;;;;;;;2.27;1.70;;;;;;;;;;5054755;28;20525;-68
2022/05/30 08:59:45;;;;;;;3.23;1.83;;;;;;;;;;5054798;28;20489;-66
2022/05/30 09:02:15;;;;;;;3.83;2.13;;;;;;;;;;5054940;28;20509;-68
2022/05/30 09:04:47;;;;;;;7.97;1.80;;;;;;;;;;5054288;28;20489;-67
2022/05/30 09:07:16;;;;;;;2.77;1.87;;;;;;;;;;5054586;28;20445;-67
2022/05/30 09:09:49;;;;;;;6.57;1.97;;;;;;;;;;5054378;28;20442;-67
2022/05/30 09:12:19;;;;;;;6.83;1.83;;;;;;;;;;5054426;28;20427;-68
2022/05/30 09:14:48;;;;;;;3.63;2.20;;;;;;;;;;5054614;28;20474;-67
2022/05/30 09:17:18;;;;;;;4.10;1.70;;;;;;;;;;5054533;28;20866;-68
2022/05/30 09:19:46;;;;;;;2.30;1.67;;;;;;;;;;5054727;28;20427;-68
2022/05/30 09:22:13;;;;;;;1.77;1.63;;;;;;;;;;5054113;28;20807;-68
2022/05/30 09:25:55;;;;;;;3.30;1.87;;;;;;;;;;5054447;28;20470;-68
2022/05/30 09:27:31;;;;;;;3.33;1.77;;;;;;;;;;5054337;28;20430;-68
2022/05/30 09:30:00;;;;;;;6.00;2.90;;;;;;;;;;5054253;28;20754;-67
2022/05/30 09:32:34;;;;;;;2.20;1.93;;;;;;;;;;5053971;28;20993;-68
2022/05/30 09:35:19;;;;;;;2.40;1.70;;;;;;;;;;5054421;28;20463;-68
2022/05/30 09:37:46;;;;;;;12.03;1.87;;;;;;;;;;5053893;28;20433;-69
2022/05/30 09:40:14;;;;;;;3.03;1.80;;;;;;;;;;5053583;28;20969;-67
2022/05/30 09:42:51;;;;;;;3.20;1.70;;;;;;;;;;5054394;28;20807;-69
2022/05/30 09:45:26;;;;;;;2.70;1.77;;;;;;;;;;5054135;28;20471;-68
2022/05/30 09:48:00;;;;;;;3.80;2.07;;;;;;;;;;5054042;28;20444;-68
2022/05/30 09:50:27;;;;;;;3.37;1.73;;;;;;;;;;5053496;28;20530;-68
2022/05/30 09:52:54;;;;;;;5.30;2.00;;;;;;;;;;5053956;28;20524;-68
2022/05/30 09:55:25;;;;;;;3.10;1.90;;;;;;;;;;5054013;28;20534;-67
2022/05/30 09:57:54;;;;;;;2.70;1.60;;;;;;;;;;5053925;28;20431;-68
2022/05/30 10:00:23;;;;;;;2.60;1.50;;;;;;;;;;5053140;28;20520;-67
2022/05/30 10:02:59;;;;;;;5.00;2.13;;;;;;;;;;5053556;28;20442;-68
2022/05/30 10:05:28;;;;;;;3.43;2.10;;;;;;;;;;5053856;28;20486;-68
2022/05/30 10:08:04;;;;;;;5.30;1.77;;;;;;;;;;5053770;28;20798;-68
2022/05/30 10:10:33;;;;;;;2.30;1.60;;;;;;;;;;5054104;28;20883;-67
2022/05/30 10:13:02;;;;;;;3.23;1.77;;;;;;;;;;5054276;28;20441;-68
2022/05/30 10:15:31;;;;;;;3.33;1.70;;;;;;;;;;5053076;28;20948;-69
2022/05/30 10:18:18;;;;;;;2.90;1.83;;;;;;;;;;5053349;28;20540;-68
2022/05/30 10:20:49;;;;;;;2.80;1.57;;;;;;;;;;5053476;28;20443;-67
2022/05/30 10:29:04;;;;;;;3.10;2.10;;;;;;;;;;5053488;28;20482;-68
2022/05/30 10:31:36;;;;;;;5.80;1.80;;;;;;;;;;5053498;28;20539;-68
2022/05/30 10:34:25;;;;;;;2.63;1.43;;;;;;;;;;5053378;28;20440;-69
2022/05/30 10:37:01;;;;;;;1.63;1.20;;;;;;;;;;5053490;28;20470;-68
2022/05/30 10:39:43;;;;;;;3.80;1.70;;;;;;;;;;5052965;28;20463;-68
2022/05/30 10:42:13;;;;;;;2.60;1.70;;;;;;;;;;5053441;28;20435;-68
2022/05/30 10:44:45;;;;;;;4.23;1.97;;;;;;;;;;5053145;28;20495;-69
2022/05/30 10:47:16;;;;;;;2.50;1.77;;;;;;;;;;5053188;28;20436;-68
2022/05/30 10:49:45;;;;;;;5.97;2.13;;;;;;;;;;5053171;28;20939;-68
2022/05/30 10:52:19;;;;;;;5.20;2.30;;;;;;;;;;5052873;28;20454;-68
2022/05/30 10:54:48;;;;;;;2.10;1.60;;;;;;;;;;5052867;28;20432;-68
2022/05/30 10:57:19;;;;;;;3.90;1.77;;;;;;;;;;5053006;28;20487;-68
2022/05/30 10:59:50;;;;;;;3.70;1.70;;;;;;;;;;5052557;28;20527;-69
2022/05/30 11:02:26;;;;;;;3.03;1.73;;;;;;;;;;5052690;28;20443;-68
2022/05/30 11:04:56;;;;;;;3.23;1.80;;;;;;;;;;5052687;28;20581;-69
2022/05/30 11:07:41;;;;;;;3.23;2.10;;;;;;;;;;5052651;28;20551;-69
2022/05/30 11:10:11;;;;;;;7.93;1.87;;;;;;;;;;5043221;28;20460;-68
2022/05/30 11:12:43;;;;;;;4.73;1.80;;;;;;;;;;5056850;28;20432;-68
2022/05/30 11:15:13;;;;;;;3.67;1.60;;;;;;;;;;5057076;28;20488;-68
2022/05/30 11:17:46;;;;;;;3.03;1.80;;;;;;;;;;5056850;28;20529;-68
2022/05/30 11:20:15;;;;;;;3.50;1.73;;;;;;;;;;5057369;28;20433;-69
2022/05/30 11:22:45;;;;;;;3.27;1.70;;;;;;;;;;5056633;28;20525;-70
2022/05/30 11:25:15;;;;;;;2.53;1.47;;;;;;;;;;5056643;28;20480;-69
2022/05/30 11:27:43;;;;;;;4.83;1.33;;;;;;;;;;5056332;28;20509;-68
2022/05/30 11:30:29;;;;;;;1.53;1.43;;;;;;;;;;5056357;28;20778;-69
2022/05/30 11:33:03;;;;;;;2.63;1.20;;;;;;;;;;5056204;28;20433;-68
2022/05/30 11:35:33;;;;;;;3.13;1.40;;;;;;;;;;5055908;28;20474;-67
2022/05/30 11:38:10;;;;;;;1.37;1.17;;;;;;;;;;5056886;28;20880;-67
2022/05/30 11:40:40;;;;;;;2.90;1.30;;;;;;;;;;5056549;28;20428;-68
2022/05/30 11:43:19;;;;;;;3.67;1.20;;;;;;;;;;5056683;28;20444;-68
2022/05/30 11:45:53;;;;;;;2.07;1.20;;;;;;;;;;5055982;28;20479;-68
2022/05/30 11:48:26;;;;;;;2.20;1.20;;;;;;;;;;5056447;28;20439;-68
2022/05/30 11:50:58;;;;;;;4.77;1.50;;;;;;;;;;5055899;28;20498;-68
2022/05/30 11:53:37;;;;;;;6.40;1.20;;;;;;;;;;5056151;28;20453;-68
2022/05/30 11:56:09;;;;;;;1.53;1.43;;;;;;;;;;5055642;28;20438;-67
2022/05/30 11:58:51;;;;;;;1.30;1.10;;;;;;;;;;5054973;28;20493;-68
2022/05/30 12:01:20;;;;;;;2.10;1.37;;;;;;;;;;5055597;28;20816;-70
2022/05/30 12:03:59;;;;;;;4.87;1.23;;;;;;;;;;5055493;28;20435;-70
2022/05/30 12:06:33;;;;;;;2.80;1.33;;;;;;;;;;5056136;28;20967;-69
2022/05/30 12:09:16;;;;;;;7.60;1.20;;;;;;;;;;5055331;28;20520;-69
2022/05/30 12:12:02;;;;;;;1.40;1.20;;;;;;;;;;5055853;28;20436;-70
2022/05/30 12:14:39;;;;;;;2.57;1.30;;;;;;;;;;5055657;28;20528;-69
2022/05/30 12:17:18;;;;;;;2.70;1.73;;;;;;;;;;5055486;28;20444;-70
2022/05/30 12:25:46;;;;;;;6.20;1.50;;;;;;;;;;5055294;28;20457;-69
2022/05/30 12:28:32;;;;;;;3.37;1.93;;;;;;;;;;5055015;28;20462;-69
2022/05/30 12:31:00;;;;;;;1.83;1.30;;;;;;;;;;5055069;28;20454;-69
2022/05/30 12:33:46;;;;;;;2.40;1.60;;;;;;;;;;5055225;28;20435;-70
2022/05/30 12:36:33;;;;;;;1.83;1.57;;;;;;;;;;5055205;28;20469;-69
2022/05/30 12:39:01;;;;;;;2.87;1.87;;;;;;;;;;5054814;28;20837;-68
2022/05/30 12:41:30;;;;;;;3.70;1.57;;;;;;;;;;5055369;28;20467;-69
2022/05/30 12:43:59;;;;;;;3.00;1.40;;;;;;;;;;5054723;28;20438;-69
2022/05/30 12:46:28;;;;;;;1.40;1.30;;;;;;;;;;5054532;28;20483;-69
2022/05/30 12:49:17;;;;;;;1.50;1.40;;;;;;;;;;5054555;28;20441;-69
2022/05/30 12:52:02;;;;;;;1.40;1.30;;;;;;;;;;5055163;28;20434;-69
2022/05/30 12:54:35;;;;;;;2.13;1.47;;;;;;;;;;5054624;28;20447;-70
2022/05/30 12:57:04;;;;;;;3.17;1.33;;;;;;;;;;5054735;28;20445;-69
2022/05/30 12:59:33;;;;;;;4.83;1.43;;;;;;;;;;5054734;28;20511;-70
2022/05/30 13:02:02;;;;;;;3.00;1.30;;;;;;;;;;5054695;28;20532;-69
2022/05/30 13:04:32;;;;;;;6.40;2.17;;;;;;;;;;5054242;28;20445;-69
2022/05/30 13:07:11;;;;;;;1.90;1.47;;;;;;;;;;5054494;28;20560;-69
2022/05/30 13:09:40;;;;;;;2.00;1.43;;;;;;;;;;5054430;28;20430;-70
2022/05/30 13:12:25;;;;;;;2.50;1.50;;;;;;;;;;5054274;28;20442;-69
2022/05/30 13:15:09;;;;;;;4.10;1.40;;;;;;;;;;5054090;28;20513;-69
2022/05/30 13:17:41;;;;;;;1.97;1.33;;;;;;;;;;5053977;28;20482;-69
2022/05/30 13:20:11;;;;;;;2.30;1.83;;;;;;;;;;5054600;28;20779;-69
2022/05/30 13:22:41;;;;;;;2.10;1.60;;;;;;;;;;5054771;28;20439;-69
2022/05/30 13:25:10;;;;;;;3.20;1.70;;;;;;;;;;5053987;28;20470;-69
2022/05/30 13:27:37;;;;;;;2.83;2.17;;;;;;;;;;5054057;28;20451;-69
2022/05/30 13:30:05;;;;;;;1.33;1.20;;;;;;;;;;5054435;28;20434;-70
2022/05/30 13:32:33;;;;;;;4.17;1.83;;;;;;;;;;5053879;28;20446;-69
2022/05/30 13:35:01;;;;;;;2.50;1.67;;;;;;;;;;5053245;28;20956;-70
2022/05/30 13:37:32;;;;;;;3.73;1.70;;;;;;;;;;5053556;28;20472;-70
2022/05/30 13:40:01;;;;;;;1.63;1.47;;;;;;;;;;5053709;28;20904;-69
2022/05/30 13:42:30;;;;;;;5.53;1.53;;;;;;;;;;5053675;28;20526;-70
2022/05/30 13:45:01;;;;;;;4.77;1.50;;;;;;;;;;5053565;28;20445;-69
2022/05/30 13:47:29;;;;;;;3.20;1.70;;;;;;;;;;5054289;28;20538;-68
2022/05/30 13:49:57;;;;;;;3.80;1.47;;;;;;;;;;5053946;28;20839;-69
2022/05/30 13:52:26;;;;;;;2.00;1.43;;;;;;;;;;5053884;28;20439;-71
2022/05/30 13:54:56;;;;;;;3.73;1.77;;;;;;;;;;5053627;28;20477;-68
2022/05/30 13:57:24;;;;;;;1.70;1.40;;;;;;;;;;5054129;28;20451;-69
2022/05/30 13:59:52;;;;;;;1.70;1.30;;;;;;;;;;5053626;28;20530;-69
2022/05/30 14:02:22;;;;;;;2.47;1.70;;;;;;;;;;5053425;28;20443;-69
2022/05/30 14:04:51;;;;;;;4.83;1.57;;;;;;;;;;5053661;28;20454;-69
2022/05/30 14:07:20;;;;;;;3.33;1.23;;;;;;;;;;5053396;28;20468;-69
2022/05/30 14:09:48;;;;;;;2.77;1.27;;;;;;;;;;5053094;28;20451;-70
2022/05/30 14:12:18;;;;;;;2.93;1.50;;;;;;;;;;5053619;28;20469;-71
2022/05/30 14:14:46;;;;;;;1.70;1.60;;;;;;;;;;5053078;28;20928;-70
2022/05/30 14:17:14;;;;;;;3.17;2.30;;;;;;;;;;5052975;28;20460;-69
2022/05/30 14:19:42;;;;;;;1.67;1.53;;;;;;;;;;5053774;28;20471;-67
2022/05/30 14:22:11;;;;;;;1.60;1.50;;;;;;;;;;5053336;28;20515;-67
2022/05/30 14:24:44;;;;;;;3.13;1.47;;;;;;;;;;5053289;28;20442;-67
2022/05/30 14:27:24;;;;;;;2.07;1.60;;;;;;;;;;5052764;28;20462;-68
2022/05/30 14:29:52;;;;;;;2.73;1.70;;;;;;;;;;5053648;28;20465;-68
2022/05/30 14:32:25;;;;;;;2.43;1.50;;;;;;;;;;5052840;28;20931;-68
2022/05/30 14:35:04;;;;;;;2.23;1.40;;;;;;;;;;5053769;28;20461;-68
2022/05/30 14:37:33;;;;;;;2.20;1.30;;;;;;;;;;5052910;28;20832;-69
2022/05/30 14:40:01;;;;;;;2.90;1.60;;;;;;;;;;5052804;28;20439;-69
2022/05/30 14:42:35;;;;;;;2.33;1.20;;;;;;;;;;5053294;28;20442;-68
2022/05/30 14:45:07;;;;;;;1.70;1.60;;;;;;;;;;5054649;28;20434;-68
2022/05/30 14:47:36;;;;;;;2.80;1.33;;;;;;;;;;5057170;28;20450;-68
2022/05/30 14:50:05;;;;;;;1.50;1.37;;;;;;;;;;5056897;28;20446;-68
2022/05/30 14:52:34;;;;;;;3.00;1.63;;;;;;;;;;5056897;28;20456;-68
2022/05/30 14:55:05;;;;;;;4.80;1.50;;;;;;;;;;5057144;28;20530;-69
2022/05/30 14:57:33;;;;;;;2.03;1.33;;;;;;;;;;5057213;28;20439;-70
2022/05/30 15:00:20;;;;;;;2.37;1.60;;;;;;;;;;5057366;28;20443;-69
2022/05/30 15:05:35;;;;;;;4.10;1.63;;;;;;;;;;5022848;28;20478;-69
2022/05/30 15:08:02;;;;;;;2.20;1.70;;;;;;;;;;5056789;28;20438;-70
2022/05/30 15:10:29;;;;;;;2.17;1.90;;;;;;;;;;5056481;28;20441;-70
2022/05/30 15:12:59;;;;;;;2.00;1.60;;;;;;;;;;5056562;28;20446;-70
2022/05/30 15:15:26;;;;;;;3.43;2.00;;;;;;;;;;5057355;28;20445;-69
2022/05/30 15:17:53;;;;;;;4.00;1.80;;;;;;;;;;5056880;28;20845;-69
2022/05/30 15:20:20;;;;;;;4.97;2.00;;;;;;;;;;5056595;28;20443;-69
2022/05/30 15:22:48;;;;;;;2.30;1.60;;;;;;;;;;5056308;28;20449;-70
2022/05/30 15:25:16;;;;;;;6.60;4.70;;;;;;;;;;5056507;28;20451;-69